createdAt,value
2023-03-13T00:00:47.694Z,702.00
2023-03-13T00:01:47.727Z,696.00
2023-03-13T00:02:47.624Z,709.00
2023-03-13T00:03:47.698Z,699.00
2023-03-13T00:04:47.647Z,701.00
2023-03-13T00:05:47.552Z,703.00
2023-03-13T00:06:47.529Z,703.00
2023-03-13T00:07:47.516Z,710.00
2023-03-13T00:08:47.504Z,706.00
2023-03-13T00:09:47.458Z,703.00
2023-03-13T00:10:47.432Z,702.00
2023-03-13T00:11:47.450Z,705.00
2023-03-13T00:12:47.398Z,703.00
2023-03-13T00:13:47.386Z,696.00
2023-03-13T00:14:47.351Z,696.00
2023-03-13T00:15:47.330Z,690.00
2023-03-13T00:16:47.344Z,690.00
2023-03-13T00:17:47.282Z,707.00
2023-03-13T00:18:47.284Z,701.00
2023-03-13T00:19:47.230Z,683.00
2023-03-13T00:20:47.207Z,683.00
2023-03-13T00:21:47.208Z,681.00
2023-03-13T00:22:47.159Z,690.00
2023-03-13T00:23:47.144Z,692.00
2023-03-13T00:24:47.110Z,684.00
2023-03-13T00:25:47.098Z,689.00
2023-03-13T00:26:47.075Z,688.00
2023-03-13T00:27:47.045Z,696.00
2023-03-13T00:28:47.035Z,688.00
2023-03-13T00:29:47.001Z,702.00
2023-03-13T00:30:46.992Z,680.00
2023-03-13T00:31:46.964Z,696.00
2023-03-13T00:32:46.928Z,686.00
2023-03-13T00:33:46.903Z,676.00
2023-03-13T00:34:46.867Z,693.00
2023-03-13T00:35:46.885Z,689.00
2023-03-13T00:36:46.816Z,694.00
2023-03-13T00:37:46.806Z,673.00
2023-03-13T00:38:46.838Z,672.00
2023-03-13T00:39:46.754Z,689.00
2023-03-13T00:40:46.729Z,679.00
2023-03-13T00:41:46.696Z,680.00
2023-03-13T00:42:46.684Z,666.00
2023-03-13T00:43:46.660Z,688.00
2023-03-13T00:44:46.628Z,681.00
2023-03-13T00:45:46.671Z,695.00
2023-03-13T00:46:46.587Z,680.00
2023-03-13T00:47:46.561Z,686.00
2023-03-13T00:48:46.561Z,690.00
2023-03-13T00:49:46.532Z,688.00
2023-03-13T00:50:46.500Z,695.00
2023-03-13T00:51:46.471Z,684.00
2023-03-13T00:52:46.440Z,706.00
2023-03-13T00:53:46.425Z,690.00
2023-03-13T00:54:46.433Z,674.00
2023-03-13T00:55:46.373Z,680.00
2023-03-13T00:56:46.344Z,698.00
2023-03-13T00:57:46.324Z,686.00
2023-03-13T00:58:46.305Z,702.00
2023-03-13T00:59:46.285Z,695.00
2023-03-13T01:00:46.253Z,693.00
2023-03-13T01:01:46.243Z,683.00
2023-03-13T01:02:46.350Z,683.00
2023-03-13T01:03:46.200Z,699.00
2023-03-13T01:04:46.150Z,683.00
2023-03-13T01:05:46.130Z,684.00
2023-03-13T01:06:46.101Z,696.00
2023-03-13T01:07:46.094Z,696.00
2023-03-13T01:08:46.054Z,695.00
2023-03-13T01:09:46.044Z,699.00
2023-03-13T01:10:46.013Z,711.00
2023-03-13T01:11:45.996Z,695.00
2023-03-13T01:12:45.968Z,695.00
2023-03-13T01:13:45.949Z,692.00
2023-03-13T01:14:45.929Z,705.00
2023-03-13T01:15:45.945Z,690.00
2023-03-13T01:16:45.925Z,702.00
2023-03-13T01:17:45.887Z,702.00
2023-03-13T01:18:45.858Z,715.00
2023-03-13T01:19:45.842Z,697.00
2023-03-13T01:20:45.833Z,687.00
2023-03-13T01:21:45.803Z,710.00
2023-03-13T01:22:45.776Z,699.00
2023-03-13T01:23:45.756Z,700.00
2023-03-13T01:24:45.757Z,709.00
2023-03-13T01:25:45.752Z,697.00
2023-03-13T01:26:45.710Z,692.00
2023-03-13T01:27:45.674Z,709.00
2023-03-13T01:28:45.650Z,710.00
2023-03-13T01:29:45.663Z,711.00
2023-03-13T01:30:45.624Z,707.00
2023-03-13T01:31:45.580Z,711.00
2023-03-13T01:32:45.636Z,719.00
2023-03-13T01:33:45.524Z,708.00
2023-03-13T01:34:45.507Z,700.00
2023-03-13T01:35:45.507Z,716.00
2023-03-13T01:36:45.449Z,710.00
2023-03-13T01:37:45.418Z,711.00
2023-03-13T01:38:45.392Z,690.00
2023-03-13T01:39:45.381Z,710.00
2023-03-13T01:40:45.355Z,710.00
2023-03-13T01:41:45.325Z,706.00
2023-03-13T01:42:45.297Z,711.00
2023-03-13T01:43:45.277Z,715.00
2023-03-13T01:44:45.259Z,702.00
2023-03-13T01:45:45.236Z,702.00
2023-03-13T01:46:45.264Z,707.00
2023-03-13T01:47:47.126Z,715.00
2023-03-13T01:48:45.188Z,719.00
2023-03-13T01:49:45.165Z,711.00
2023-03-13T01:50:45.174Z,709.00
2023-03-13T01:51:45.147Z,716.00
2023-03-13T01:52:45.106Z,720.00
2023-03-13T01:53:45.091Z,713.00
2023-03-13T01:54:45.059Z,710.00
2023-03-13T01:55:45.064Z,716.00
2023-03-13T01:56:45.032Z,709.00
2023-03-13T01:57:45.002Z,720.00
2023-03-13T01:58:44.976Z,720.00
2023-03-13T01:59:44.960Z,711.00
2023-03-13T02:00:44.935Z,712.00
2023-03-13T02:01:44.974Z,715.00
2023-03-13T02:02:44.949Z,710.00
2023-03-13T02:03:44.865Z,720.00
2023-03-13T02:04:44.837Z,710.00
2023-03-13T02:05:44.830Z,718.00
2023-03-13T02:06:44.799Z,712.00
2023-03-13T02:07:44.771Z,699.00
2023-03-13T02:08:44.735Z,711.00
2023-03-13T02:09:44.708Z,717.00
2023-03-13T02:10:44.706Z,707.00
2023-03-13T02:11:44.671Z,712.00
2023-03-13T02:12:44.653Z,713.00
2023-03-13T02:13:44.611Z,709.00
2023-03-13T02:14:44.603Z,702.00
2023-03-13T02:15:44.646Z,714.00
2023-03-13T02:16:44.548Z,699.00
2023-03-13T02:17:44.558Z,690.00
2023-03-13T02:18:44.562Z,706.00
2023-03-13T02:19:44.518Z,705.00
2023-03-13T02:20:44.483Z,710.00
2023-03-13T02:21:44.439Z,708.00
2023-03-13T02:22:44.418Z,708.00
2023-03-13T02:23:44.398Z,714.00
2023-03-13T02:24:44.379Z,705.00
2023-03-13T02:25:44.362Z,702.00
2023-03-13T02:26:44.329Z,719.00
2023-03-13T02:27:44.299Z,713.00
2023-03-13T02:28:44.282Z,713.00
2023-03-13T02:29:44.254Z,695.00
2023-03-13T02:30:44.218Z,718.00
2023-03-13T02:31:44.243Z,707.00
2023-03-13T02:32:44.272Z,709.00
2023-03-13T02:33:44.168Z,716.00
2023-03-13T02:34:44.117Z,703.00
2023-03-13T02:35:44.140Z,699.00
2023-03-13T02:36:44.082Z,699.00
2023-03-13T02:37:44.057Z,709.00
2023-03-13T02:38:44.038Z,709.00
2023-03-13T02:39:44.011Z,710.00
2023-03-13T02:40:44.023Z,705.00
2023-03-13T02:41:43.973Z,705.00
2023-03-13T02:42:43.943Z,714.00
2023-03-13T02:43:43.922Z,696.00
2023-03-13T02:44:43.886Z,695.00
2023-03-13T02:45:43.863Z,698.00
2023-03-13T02:46:43.890Z,693.00
2023-03-13T02:47:43.840Z,692.00
2023-03-13T02:48:43.817Z,709.00
2023-03-13T02:49:43.763Z,699.00
2023-03-13T02:50:43.733Z,707.00
2023-03-13T02:51:43.765Z,699.00
2023-03-13T02:52:43.697Z,691.00
2023-03-13T02:53:43.664Z,698.00
2023-03-13T02:54:43.661Z,706.00
2023-03-13T02:55:43.625Z,704.00
2023-03-13T02:56:43.606Z,706.00
2023-03-13T02:57:43.573Z,700.00
2023-03-13T02:58:49.659Z,702.00
2023-03-13T02:59:44.529Z,702.00
2023-03-13T03:00:43.541Z,705.00
2023-03-13T03:01:43.489Z,706.00
2023-03-13T03:02:43.472Z,705.00
2023-03-13T03:03:43.452Z,703.00
2023-03-13T03:04:43.432Z,698.00
2023-03-13T03:05:43.396Z,708.00
2023-03-13T03:06:43.382Z,694.00
2023-03-13T03:07:43.340Z,704.00
2023-03-13T03:08:43.329Z,694.00
2023-03-13T03:09:43.296Z,694.00
2023-03-13T03:10:43.270Z,706.00
2023-03-13T03:11:43.261Z,701.00
2023-03-13T03:12:43.226Z,697.00
2023-03-13T03:13:43.197Z,701.00
2023-03-13T03:14:43.160Z,698.00
2023-03-13T03:15:43.154Z,702.00
2023-03-13T03:16:43.219Z,695.00
2023-03-13T03:17:43.095Z,688.00
2023-03-13T03:18:43.060Z,709.00
2023-03-13T03:19:43.033Z,683.00
2023-03-13T03:20:43.018Z,708.00
2023-03-13T03:21:42.993Z,690.00
2023-03-13T03:22:42.958Z,688.00
2023-03-13T03:23:42.940Z,702.00
2023-03-13T03:24:42.908Z,700.00
2023-03-13T03:25:42.881Z,696.00
2023-03-13T03:26:42.861Z,682.00
2023-03-13T03:27:42.829Z,693.00
2023-03-13T03:28:42.832Z,694.00
2023-03-13T03:29:42.798Z,695.00
2023-03-13T03:30:42.766Z,695.00
2023-03-13T03:31:42.808Z,695.00
2023-03-13T03:32:42.776Z,702.00
2023-03-13T03:33:42.707Z,698.00
2023-03-13T03:34:42.679Z,708.00
2023-03-13T03:35:42.678Z,696.00
2023-03-13T03:36:42.643Z,683.00
2023-03-13T03:37:42.635Z,691.00
2023-03-13T03:38:42.635Z,688.00
2023-03-13T03:39:42.566Z,694.00
2023-03-13T03:40:42.540Z,690.00
2023-03-13T03:41:42.544Z,697.00
2023-03-13T03:42:42.519Z,684.00
2023-03-13T03:43:42.474Z,689.00
2023-03-13T03:44:42.451Z,696.00
2023-03-13T03:45:42.470Z,698.00
2023-03-13T03:46:42.424Z,700.00
2023-03-13T03:47:42.388Z,697.00
2023-03-13T03:48:42.348Z,688.00
2023-03-13T03:49:42.332Z,694.00
2023-03-13T03:50:42.306Z,676.00
2023-03-13T03:51:42.274Z,694.00
2023-03-13T03:52:42.257Z,691.00
2023-03-13T03:53:42.221Z,677.00
2023-03-13T03:54:42.199Z,674.00
2023-03-13T03:55:42.178Z,660.00
2023-03-13T03:56:42.148Z,661.00
2023-03-13T03:57:42.127Z,666.00
2023-03-13T03:58:42.117Z,669.00
2023-03-13T03:59:42.081Z,666.00
2023-03-13T04:00:42.052Z,678.00
2023-03-13T04:01:42.040Z,668.00
2023-03-13T04:02:42.099Z,664.00
2023-03-13T04:03:42.038Z,668.00
2023-03-13T04:04:41.971Z,659.00
2023-03-13T04:05:41.945Z,646.00
2023-03-13T04:06:41.910Z,647.00
2023-03-13T04:07:41.883Z,652.00
2023-03-13T04:08:41.846Z,660.00
2023-03-13T04:09:41.828Z,661.00
2023-03-13T04:10:41.796Z,661.00
2023-03-13T04:11:41.768Z,662.00
2023-03-13T04:12:41.756Z,662.00
2023-03-13T04:13:41.718Z,660.00
2023-03-13T04:14:41.699Z,658.00
2023-03-13T04:26:41.939Z,592.00
2023-03-13T07:49:36.157Z,2253.00
2023-03-13T07:50:36.079Z,2197.00
2023-03-13T07:51:43.336Z,2199.00
2023-03-13T07:52:36.901Z,2165.00
2023-03-13T07:53:35.967Z,2140.00
2023-03-13T07:54:35.829Z,2123.00
2023-03-13T07:55:36.110Z,2084.00
2023-03-13T07:56:35.772Z,2089.00
2023-03-13T07:57:35.795Z,1995.00
2023-03-13T07:58:35.699Z,2008.00
2023-03-13T07:59:35.729Z,2042.00
2023-03-13T08:00:35.646Z,1969.00
2023-03-13T08:01:35.573Z,1989.00
2023-03-13T08:02:35.596Z,1899.00
2023-03-13T08:03:35.581Z,1922.00
2023-03-13T08:04:35.490Z,1961.00
2023-03-13T08:05:35.469Z,1957.00
2023-03-13T08:06:35.466Z,1824.00
2023-03-13T08:07:35.409Z,1841.00
2023-03-13T08:08:35.401Z,1762.00
2023-03-13T08:09:35.342Z,1857.00
2023-03-13T08:10:35.301Z,1924.00
2023-03-13T08:11:35.247Z,1954.00
2023-03-13T08:12:35.232Z,1979.00
2023-03-13T08:13:35.179Z,1987.00
2023-03-13T08:14:35.167Z,1982.00
2023-03-13T08:15:35.135Z,1996.00
2023-03-13T08:16:35.282Z,2022.00
2023-03-13T08:17:35.042Z,2018.00
2023-03-13T08:18:35.066Z,2019.00
2023-03-13T08:19:35.017Z,2022.00
2023-03-13T08:20:34.996Z,2023.00
2023-03-13T08:21:34.923Z,2020.00
2023-03-13T08:22:34.910Z,2026.00
2023-03-13T08:23:34.880Z,2038.00
2023-03-13T08:24:34.809Z,2055.00
2023-03-13T08:25:34.846Z,2071.00
2023-03-13T08:26:34.826Z,2075.00
2023-03-13T08:27:34.737Z,2073.00
2023-03-13T08:28:34.652Z,2061.00
2023-03-13T08:29:34.645Z,2087.00
2023-03-13T08:30:34.694Z,2091.00
2023-03-13T08:31:34.555Z,2093.00
2023-03-13T08:33:34.481Z,2090.00
2023-03-13T08:34:34.419Z,2110.00
2023-03-13T08:35:34.501Z,2127.00
2023-03-13T08:36:34.387Z,2006.00
2023-03-13T08:37:34.317Z,1924.00
2023-03-13T08:38:34.239Z,1926.00
2023-03-13T08:39:34.206Z,1827.00
2023-03-13T08:40:34.161Z,1667.00
2023-03-13T08:41:34.155Z,1843.00
2023-03-13T08:42:34.051Z,1930.00
2023-03-13T08:43:34.118Z,1969.00
2023-03-13T08:44:33.999Z,1988.00
2023-03-13T08:45:33.973Z,2011.00
2023-03-13T08:46:33.996Z,2001.00
2023-03-13T08:47:33.835Z,1988.00
2023-03-13T08:48:33.814Z,2031.00
2023-03-13T08:49:33.770Z,2025.00
2023-03-13T08:50:33.736Z,2056.00
2023-03-13T08:51:33.712Z,2106.00
2023-03-13T08:52:33.634Z,2142.00
2023-03-13T08:53:33.604Z,2112.00
2023-03-13T08:54:33.604Z,2091.00
2023-03-13T08:55:33.497Z,2087.00
2023-03-13T08:56:33.482Z,2077.00
2023-03-13T08:57:33.486Z,2097.00
2023-03-13T08:58:33.368Z,2083.00
2023-03-13T08:59:33.341Z,2077.00
2023-03-13T09:00:33.272Z,2102.00
2023-03-13T09:01:33.258Z,2076.00
2023-03-13T09:02:33.234Z,2104.00
2023-03-13T09:03:33.198Z,2104.00
2023-03-13T09:04:33.134Z,2105.00
2023-03-13T09:05:40.667Z,2087.00
2023-03-13T09:06:34.123Z,2106.00
2023-03-13T09:07:32.980Z,2110.00
2023-03-13T09:08:32.918Z,2106.00
2023-03-13T09:09:32.878Z,2115.00
2023-03-13T09:10:33.005Z,2110.00
2023-03-13T09:11:32.833Z,2105.00
2023-03-13T09:12:32.782Z,2155.00
2023-03-13T09:13:32.700Z,2131.00
2023-03-13T09:14:33.697Z,2124.00
2023-03-13T09:15:32.646Z,2160.00
2023-03-13T09:16:32.602Z,2142.00
2023-03-13T09:17:32.520Z,2147.00
2023-03-13T09:18:32.553Z,2131.00
2023-03-13T09:19:32.445Z,2138.00
2023-03-13T09:20:32.380Z,2131.00
2023-03-13T09:21:32.369Z,2120.00
2023-03-13T09:22:32.285Z,2132.00
2023-03-13T09:23:32.263Z,2115.00
2023-03-13T09:24:32.231Z,2127.00
2023-03-13T09:25:32.193Z,2138.00
2023-03-13T09:26:32.216Z,2167.00
2023-03-13T09:27:33.048Z,2143.00
2023-03-13T09:28:32.070Z,2136.00
2023-03-13T09:29:32.019Z,2165.00
2023-03-13T09:30:31.968Z,2154.00
2023-03-13T09:31:32.087Z,2143.00
2023-03-13T09:32:32.016Z,2188.00
2023-03-13T09:33:31.839Z,2189.00
2023-03-13T09:34:31.859Z,2157.00
2023-03-13T09:35:31.876Z,2158.00
2023-03-13T10:53:28.831Z,508.00
2023-03-13T10:57:28.673Z,786.00
2023-03-13T10:58:28.648Z,807.00
2023-03-13T10:59:28.630Z,886.00
2023-03-13T11:00:28.606Z,1029.00
2023-03-13T11:01:28.555Z,1251.00
2023-03-13T11:02:28.838Z,1364.00
2023-03-13T11:03:28.626Z,1414.00
2023-03-13T11:04:28.456Z,1431.00
2023-03-13T11:05:28.455Z,1450.00
2023-03-13T11:06:28.381Z,1460.00
2023-03-13T11:07:28.344Z,1456.00
2023-03-13T11:08:28.355Z,1460.00
2023-03-13T11:09:28.264Z,1475.00
2023-03-13T11:10:28.223Z,1507.00
2023-03-13T11:11:28.201Z,1560.00
2023-03-13T11:12:28.170Z,1626.00
2023-03-13T11:13:36.626Z,1372.00
2023-03-13T11:15:28.052Z,1375.00
2023-03-13T11:16:28.025Z,1421.00
2023-03-13T11:17:28.006Z,1515.00
2023-03-13T11:18:27.928Z,1664.00
2023-03-13T11:19:27.872Z,1690.00
2023-03-13T11:20:27.826Z,1731.00
2023-03-13T11:21:27.795Z,1700.00
2023-03-13T11:22:27.892Z,1698.00
2023-03-13T11:23:27.736Z,1736.00
2023-03-13T11:24:27.720Z,1752.00
2023-03-13T11:25:27.668Z,1781.00
2023-03-13T11:26:27.598Z,1754.00
2023-03-13T11:27:27.620Z,1743.00
2023-03-13T11:28:27.542Z,1763.00
2023-03-13T11:29:27.511Z,1732.00
2023-03-13T11:30:27.471Z,1750.00
2023-03-13T11:31:27.542Z,1785.00
2023-03-13T11:32:27.489Z,1786.00
2023-03-13T11:33:27.425Z,1786.00
2023-03-13T11:34:28.175Z,1791.00
2023-03-13T11:35:27.238Z,1799.00
2023-03-13T11:36:27.203Z,1766.00
2023-03-13T11:37:27.176Z,1780.00
2023-03-13T11:38:27.149Z,1760.00
2023-03-13T11:39:27.083Z,1761.00
2023-03-13T11:40:27.113Z,1738.00
2023-03-13T11:41:27.031Z,1772.00
2023-03-13T11:42:26.976Z,1755.00
2023-03-13T11:43:27.657Z,1769.00
2023-03-13T11:44:27.156Z,1770.00
2023-03-13T11:45:27.138Z,1775.00
2023-03-13T11:46:27.152Z,1770.00
2023-03-13T11:47:27.021Z,1792.00
2023-03-13T11:48:26.980Z,1820.00
2023-03-13T11:49:26.961Z,1807.00
2023-03-13T11:50:26.848Z,1870.00
2023-03-13T11:51:26.949Z,1855.00
2023-03-13T11:52:27.263Z,1830.00
2023-03-13T11:53:26.962Z,1848.00
2023-03-13T11:54:26.778Z,1888.00
2023-03-13T11:56:26.702Z,1893.00
2023-03-13T11:57:26.730Z,1871.00
2023-03-13T11:58:26.694Z,1893.00
2023-03-13T11:59:26.633Z,1884.00
2023-03-13T12:00:26.496Z,1872.00
2023-03-13T12:01:26.456Z,1885.00
2023-03-13T12:02:26.596Z,1878.00
2023-03-13T12:03:27.179Z,1878.00
2023-03-13T12:04:26.830Z,1565.00
2023-03-13T12:05:26.544Z,1294.00
2023-03-13T12:06:28.571Z,1272.00
2023-03-13T12:07:26.528Z,1449.00
2023-03-13T12:08:26.555Z,1544.00
2023-03-13T12:09:28.287Z,1645.00
2023-03-13T12:10:26.477Z,1662.00
2023-03-13T12:11:26.489Z,1665.00
2023-03-13T12:12:26.512Z,1698.00
2023-03-13T12:13:26.309Z,1751.00
2023-03-13T12:14:26.240Z,1742.00
2023-03-13T12:15:26.209Z,1798.00
2023-03-13T12:16:26.249Z,1831.00
2023-03-13T12:17:26.189Z,1858.00
2023-03-13T12:18:26.107Z,1930.00
2023-03-13T12:19:26.110Z,1952.00
2023-03-13T12:20:26.093Z,1967.00
2023-03-13T12:21:25.994Z,1975.00
2023-03-13T12:22:25.915Z,1989.00
2023-03-13T12:23:25.957Z,2008.00
2023-03-13T12:24:25.826Z,2020.00
2023-03-13T12:25:25.854Z,2028.00
2023-03-13T12:26:25.856Z,2080.00
2023-03-13T12:27:25.702Z,2080.00
2023-03-13T12:28:25.790Z,2082.00
2023-03-13T12:29:25.632Z,2089.00
2023-03-13T12:30:25.574Z,2116.00
2023-03-13T12:31:25.520Z,2141.00
2023-03-13T12:32:25.534Z,2168.00
2023-03-13T12:33:25.465Z,2159.00
2023-03-13T12:34:25.412Z,2161.00
2023-03-13T12:35:25.367Z,2172.00
2023-03-13T12:36:25.316Z,2192.00
2023-03-13T12:37:25.279Z,2215.00
2023-03-13T12:38:25.236Z,2239.00
2023-03-13T12:39:25.237Z,2189.00
2023-03-13T12:40:25.198Z,2476.00
2023-03-13T12:41:25.151Z,2927.00
2023-03-13T12:42:25.097Z,3219.00
2023-03-13T12:43:25.055Z,3395.00
2023-03-13T12:44:25.045Z,3441.00
2023-03-13T12:45:25.012Z,3948.00
2023-03-13T12:46:24.938Z,4981.00
2023-03-13T12:47:26.983Z,5653.00
2023-03-13T12:48:24.860Z,5945.00
2023-03-13T12:49:24.811Z,6115.00
2023-03-13T12:50:24.766Z,6074.00
2023-03-13T12:51:24.721Z,5988.00
2023-03-13T12:52:24.680Z,5965.00
2023-03-13T12:53:24.669Z,5927.00
2023-03-13T12:54:24.652Z,5890.00
2023-03-13T12:55:24.580Z,5906.00
2023-03-13T12:56:24.548Z,5844.00
2023-03-13T12:57:24.573Z,5814.00
2023-03-13T12:58:24.487Z,5801.00
2023-03-13T12:59:24.457Z,5734.00
2023-03-13T13:00:24.654Z,5747.00
2023-03-13T13:01:24.438Z,5739.00
2023-03-13T13:02:24.317Z,5722.00
2023-03-13T13:03:24.288Z,5683.00
2023-03-13T13:04:24.315Z,5675.00
2023-03-13T13:05:24.213Z,5651.00
2023-03-13T13:06:24.188Z,5618.00
2023-03-13T13:07:24.147Z,5613.00
2023-03-13T13:08:24.121Z,5577.00
2023-03-13T13:09:24.057Z,5560.00
2023-03-13T13:10:24.045Z,5541.00
2023-03-13T13:11:24.431Z,5526.00
2023-03-13T13:12:24.004Z,5471.00
2023-03-13T13:13:23.924Z,5486.00
2023-03-13T13:14:23.903Z,5428.00
2023-03-13T13:15:23.857Z,5439.00
2023-03-13T13:16:23.896Z,5432.00
2023-03-13T13:17:23.783Z,5404.00
2023-03-13T13:18:23.760Z,5376.00
2023-03-13T13:19:23.715Z,5367.00
2023-03-13T13:20:23.700Z,5343.00
2023-03-13T13:21:23.624Z,5337.00
2023-03-13T13:22:23.651Z,5313.00
2023-03-13T13:23:23.560Z,5287.00
2023-03-13T13:24:23.598Z,5257.00
2023-03-13T13:25:23.579Z,5245.00
2023-03-13T13:26:23.448Z,5234.00
2023-03-13T13:27:23.438Z,5190.00
2023-03-13T13:28:23.418Z,5198.00
2023-03-13T13:29:23.438Z,5161.00
2023-03-13T13:30:23.344Z,5157.00
2023-03-13T13:31:23.419Z,5150.00
2023-03-13T13:32:23.281Z,5106.00
2023-03-13T13:33:23.233Z,5086.00
2023-03-13T13:34:23.172Z,5056.00
2023-03-13T13:35:23.148Z,5046.00
2023-03-13T13:36:23.109Z,5038.00
2023-03-13T13:37:23.083Z,5037.00
2023-03-13T13:38:23.040Z,5010.00
2023-03-13T13:39:22.997Z,4985.00
2023-03-13T13:40:22.979Z,4969.00
2023-03-13T13:41:23.017Z,4944.00
2023-03-13T13:42:22.961Z,4931.00
2023-03-13T13:43:22.883Z,4906.00
2023-03-13T13:44:22.853Z,4885.00
2023-03-13T13:45:22.801Z,4874.00
2023-03-13T13:46:22.942Z,4858.00
2023-03-13T13:47:22.816Z,4841.00
2023-03-13T13:48:22.701Z,4828.00
2023-03-13T13:49:22.664Z,4805.00
2023-03-13T13:50:22.656Z,4777.00
2023-03-13T13:51:22.621Z,4753.00
2023-03-13T13:52:22.613Z,4736.00
2023-03-13T13:53:22.534Z,4736.00
2023-03-13T13:54:22.549Z,4712.00
2023-03-13T13:55:22.476Z,4661.00
2023-03-13T13:56:22.455Z,4666.00
2023-03-13T13:57:22.407Z,4648.00
2023-03-13T13:58:22.429Z,4626.00
2023-03-13T13:59:22.339Z,4605.00
2023-03-13T14:00:22.300Z,4593.00
2023-03-13T14:01:22.271Z,4573.00
2023-03-13T14:02:22.237Z,4562.00
2023-03-13T14:03:22.195Z,4532.00
2023-03-13T14:04:22.158Z,4525.00
2023-03-13T14:05:22.156Z,4495.00
2023-03-13T14:06:22.104Z,4490.00
2023-03-13T14:07:22.086Z,4439.00
2023-03-13T14:08:22.036Z,4448.00
2023-03-13T14:09:22.003Z,4437.00
2023-03-13T14:10:21.986Z,4409.00
2023-03-13T14:11:21.934Z,4391.00
2023-03-13T14:12:21.902Z,4369.00
2023-03-13T14:13:21.883Z,4345.00
2023-03-13T14:14:21.854Z,4340.00
2023-03-13T14:15:21.782Z,4298.00
2023-03-13T14:16:24.161Z,4293.00
2023-03-13T14:17:21.736Z,4285.00
2023-03-13T14:18:21.733Z,4247.00
2023-03-13T14:34:22.177Z,3983.00
2023-03-13T18:29:13.850Z,1803.00
2023-03-13T18:30:13.818Z,1804.00
2023-03-13T18:31:13.863Z,1785.00
2023-03-13T18:32:13.760Z,1787.00
2023-03-13T18:33:13.733Z,1740.00
2023-03-13T18:34:13.711Z,1740.00
2023-03-13T18:35:13.707Z,1731.00
2023-03-13T18:36:13.655Z,1752.00
2023-03-13T18:37:13.629Z,1747.00
2023-03-13T18:38:13.621Z,1746.00
2023-03-13T18:39:13.569Z,1735.00
2023-03-13T18:40:13.554Z,1740.00
2023-03-13T18:41:13.508Z,1744.00
2023-03-13T18:42:13.496Z,1741.00
2023-03-13T18:43:13.456Z,1732.00
2023-03-13T18:44:13.428Z,1726.00
2023-03-13T18:45:13.424Z,1724.00
2023-03-13T18:46:13.405Z,1717.00
2023-03-13T18:47:13.382Z,1710.00
2023-03-13T18:48:13.335Z,1703.00
2023-03-13T18:49:13.313Z,1705.00
2023-03-13T18:50:13.304Z,1701.00
2023-03-13T18:51:13.262Z,1712.00
2023-03-13T18:52:13.257Z,1702.00
2023-03-13T18:53:13.205Z,1701.00
2023-03-13T18:54:13.184Z,1693.00
2023-03-13T18:55:13.172Z,1696.00
2023-03-13T18:56:13.124Z,1682.00
2023-03-13T18:57:13.101Z,1680.00
2023-03-13T18:58:13.061Z,1675.00
2023-03-13T18:59:13.046Z,1667.00
2023-03-13T19:00:13.072Z,1660.00
2023-03-13T19:01:13.077Z,1662.00
2023-03-13T19:02:13.028Z,1658.00
2023-03-13T19:03:12.927Z,1662.00
2023-03-13T19:04:12.917Z,1655.00
2023-03-13T19:05:12.888Z,1640.00
2023-03-13T19:06:12.862Z,1642.00
2023-03-13T19:07:12.854Z,1649.00
2023-03-13T19:08:12.809Z,1630.00
2023-03-13T19:09:37.686Z,1633.00
2023-03-13T19:10:13.745Z,1634.00
2023-03-13T19:11:12.725Z,1634.00
2023-03-13T19:12:12.700Z,1632.00
2023-03-13T19:13:12.673Z,1618.00
2023-03-13T19:14:12.648Z,1616.00
2023-03-13T19:15:12.633Z,1620.00
2023-03-13T19:16:12.608Z,1596.00
2023-03-13T19:17:12.564Z,1603.00
2023-03-13T19:18:12.556Z,1594.00
2023-03-13T19:19:12.531Z,1590.00
2023-03-13T19:20:12.498Z,1586.00
2023-03-13T19:21:12.474Z,1568.00
2023-03-13T19:22:12.456Z,1581.00
2023-03-13T19:23:12.438Z,1585.00
2023-03-13T19:24:12.412Z,1573.00
2023-03-13T19:25:12.398Z,1574.00
2023-03-13T19:26:12.374Z,1574.00
2023-03-13T19:27:12.344Z,1574.00
2023-03-13T19:28:12.344Z,1575.00
2023-03-13T19:29:12.313Z,1574.00
2023-03-13T19:30:12.293Z,1570.00
2023-03-13T19:31:12.274Z,1561.00
2023-03-13T19:32:12.278Z,1549.00
2023-03-13T19:33:12.251Z,1550.00
2023-03-13T19:34:12.215Z,1551.00
2023-03-13T19:35:12.194Z,1538.00
2023-03-13T19:36:12.187Z,1538.00
2023-03-13T19:37:12.150Z,1539.00
2023-03-13T19:38:12.121Z,1540.00
2023-03-13T19:39:12.120Z,1529.00
2023-03-13T19:40:12.064Z,1528.00
2023-03-13T19:41:12.049Z,1529.00
2023-03-13T19:42:12.013Z,1524.00
2023-03-13T19:43:11.982Z,1519.00
2023-03-13T19:44:11.985Z,1520.00
2023-03-13T19:45:11.959Z,1519.00
2023-03-13T19:46:12.016Z,1511.00
2023-03-13T19:47:12.002Z,1496.00
2023-03-13T19:48:11.985Z,1488.00
2023-03-13T19:49:12.744Z,1462.00
2023-03-13T19:50:11.872Z,1480.00
2023-03-13T19:51:11.804Z,1479.00
2023-03-13T19:52:11.786Z,1460.00
2023-03-13T19:53:11.738Z,1466.00
2023-03-13T19:54:11.740Z,1454.00
